Time;durP1;ratioP1;P1;durP2;ratioP2;P2;SDS_P1;SDS_P2;PMS_P1;PMS_P2;Temp;Humidity;BMP_temperature;BMP_pressure;BME280_temperature;BME280_humidity;BME280_pressure;Samples;Min_cycle;Max_cycle;Signal;HPM_P1;HPM_P2
2023/01/13 00:02:31;;;;;;;;;;;21.50;53.60;;;;;;6060614;29;19923;-57
2023/01/13 00:05:34;;;;;;;;;;;21.40;53.30;;;;;;6060771;29;19968;-57
2023/01/13 00:08:35;;;;;;;;;;;21.70;53.60;;;;;;6060494;29;20418;-58
2023/01/13 00:11:36;;;;;;;;;;;21.50;53.50;;;;;;6060280;29;19930;-57
2023/01/13 00:14:37;;;;;;;;;;;21.40;53.50;;;;;;6060500;29;19923;-57
2023/01/13 00:17:39;;;;;;;;;;;22.10;53.90;;;;;;6060180;29;20026;-58
2023/01/13 00:20:41;;;;;;;;;;;21.60;53.60;;;;;;6059940;29;19924;-57
2023/01/13 00:23:42;;;;;;;;;;;21.40;53.50;;;;;;6060102;29;19931;-57
2023/01/13 00:26:44;;;;;;;;;;;21.70;53.70;;;;;;6059825;29;19924;-57
2023/01/13 00:29:45;;;;;;;;;;;21.60;53.70;;;;;;6059645;29;20372;-57
2023/01/13 00:32:46;;;;;;;;;;;21.70;53.20;;;;;;6060086;29;20306;-57
2023/01/13 00:35:55;;;;;;;;;;;21.90;53.90;;;;;;6060184;29;19934;-57
2023/01/13 00:38:57;;;;;;;;;;;21.60;53.60;;;;;;6059752;29;20082;-57
2023/01/13 00:45:10;;;;;;;;;;;21.50;53.60;;;;;;6060363;29;20011;-58
2023/01/13 00:48:12;;;;;;;;;;;21.50;53.70;;;;;;6059700;29;19972;-58
2023/01/13 00:51:15;;;;;;;;;;;21.70;53.80;;;;;;6059244;29;19924;-57
2023/01/13 00:54:17;;;;;;;;;;;21.40;53.60;;;;;;6042772;29;20026;-57
2023/01/13 00:57:19;;;;;;;;;;;21.50;53.60;;;;;;6059478;29;19980;-58
2023/01/13 01:00:20;;;;;;;;;;;22.00;54.00;;;;;;6059727;29;20411;-57
2023/01/13 01:03:21;;;;;;;;;;;21.50;53.70;;;;;;6059173;29;19924;-58
2023/01/13 01:06:24;;;;;;;;;;;21.70;53.80;;;;;;6059378;29;19931;-58
2023/01/13 01:09:31;;;;;;;;;;;21.40;53.70;;;;;;6042357;29;20021;-58
2023/01/13 01:12:33;;;;;;;;;;;21.40;53.60;;;;;;6059049;29;19969;-57
2023/01/13 01:15:38;;;;;;;;;;;21.70;53.70;;;;;;6059334;29;20003;-58
2023/01/13 01:18:40;;;;;;;;;;;21.60;53.80;;;;;;6059135;29;19924;-58
2023/01/13 01:21:42;;;;;;;;;;;21.70;53.70;;;;;;6059095;29;19962;-58
2023/01/13 01:24:43;;;;;;;;;;;21.90;53.90;;;;;;6059367;29;19930;-58
2023/01/13 01:27:45;;;;;;;;;;;21.40;53.60;;;;;;6059214;29;19931;-57
2023/01/13 01:30:46;;;;;;;;;;;21.30;53.70;;;;;;6058943;29;20088;-57
2023/01/13 01:33:47;;;;;;;;;;;21.50;53.80;;;;;;6059240;29;20400;-58
2023/01/13 01:36:49;;;;;;;;;;;21.30;53.70;;;;;;6058940;29;19959;-58
2023/01/13 01:39:50;;;;;;;;;;;21.50;53.70;;;;;;6058683;29;19930;-55
2023/01/13 01:46:07;;;;;;;;;;;21.40;53.60;;;;;;6044175;29;19934;-58
2023/01/13 01:49:11;;;;;;;;;;;21.60;53.90;;;;;;6058590;29;20059;-57
2023/01/13 01:52:15;;;;;;;;;;;21.50;53.70;;;;;;6042567;29;20389;-57
2023/01/13 01:55:17;;;;;;;;;;;21.70;54.80;;;;;;6058681;29;20286;-57
2023/01/13 01:58:20;;;;;;;;;;;21.70;53.80;;;;;;6058623;29;20014;-54
2023/01/13 02:01:21;;;;;;;;;;;21.30;53.60;;;;;;6059120;29;19992;-57
2023/01/13 02:04:25;;;;;;;;;;;21.30;53.70;;;;;;6058640;29;19930;-57
2023/01/13 02:07:29;;;;;;;;;;;21.30;53.50;;;;;;6059458;29;20359;-53
2023/01/13 02:10:31;;;;;;;;;;;21.30;53.70;;;;;;6042285;29;20391;-53
2023/01/13 02:13:32;;;;;;;;;;;22.00;54.00;;;;;;6059451;29;20014;-50
2023/01/13 02:16:35;;;;;;;;;;;21.50;53.70;;;;;;6058384;29;19958;-50
2023/01/13 02:19:56;;;;;;;;;;;21.20;53.30;;;;;;6058642;29;19930;-50
2023/01/13 02:24:52;;;;;;;;;;;21.30;53.40;;;;;;6058648;29;19935;-51
2023/01/13 02:26:46;;;;;;;;;;;21.30;53.50;;;;;;6044609;29;20022;-52
2023/01/13 02:33:12;;;;;;;;;;;21.50;53.50;;;;;;6043766;29;19923;-51
2023/01/13 02:36:20;;;;;;;;;;;21.30;53.30;;;;;;6058278;29;19928;-51
2023/01/13 02:39:23;;;;;;;;;;;21.60;53.10;;;;;;6057991;29;19927;-50
2023/01/13 02:45:45;;;;;;;;;;;21.30;53.40;;;;;;6058266;29;19996;-50
2023/01/13 02:48:49;;;;;;;;;;;21.40;53.50;;;;;;6058772;29;20369;-52
2023/01/13 02:51:52;;;;;;;;;;;21.30;53.50;;;;;;6041401;29;19923;-51
2023/01/13 02:54:54;;;;;;;;;;;21.60;54.20;;;;;;6058284;29;20074;-53
2023/01/13 02:57:58;;;;;;;;;;;21.20;53.40;;;;;;6057721;29;19924;-52
2023/01/13 03:01:00;;;;;;;;;;;21.40;53.50;;;;;;6058368;29;19950;-52
2023/01/13 03:04:10;;;;;;;;;;;21.60;53.60;;;;;;6057863;29;19972;-52
2023/01/13 03:07:12;;;;;;;;;;;21.30;53.30;;;;;;6057746;29;19923;-52
2023/01/13 03:10:21;;;;;;;;;;;21.20;53.30;;;;;;6058628;29;19923;-52
2023/01/13 03:13:28;;;;;;;;;;;21.40;53.40;;;;;;6041450;29;19955;-51
2023/01/13 03:16:37;;;;;;;;;;;21.20;53.40;;;;;;6058671;29;19923;-52
2023/01/13 03:19:43;;;;;;;;;;;21.20;53.30;;;;;;6058784;29;19934;-52
2023/01/13 03:22:50;;;;;;;;;;;21.10;53.20;;;;;;6058758;29;19924;-52
2023/01/13 03:25:55;;;;;;;;;;;21.70;53.50;;;;;;6057847;29;19973;-52
2023/01/13 03:29:00;;;;;;;;;;;21.40;53.40;;;;;;6056220;29;20454;-52
2023/01/13 03:32:06;;;;;;;;;;;21.30;53.30;;;;;;6058176;29;20314;-51
2023/01/13 03:35:10;;;;;;;;;;;21.90;53.70;;;;;;6057339;29;20424;-53
2023/01/13 03:38:14;;;;;;;;;;;21.30;53.30;;;;;;6057222;29;19924;-52
2023/01/13 03:41:18;;;;;;;;;;;21.10;53.30;;;;;;6040630;29;20360;-52
2023/01/13 03:44:24;;;;;;;;;;;21.30;53.30;;;;;;6057285;29;19955;-52
2023/01/13 03:47:27;;;;;;;;;;;21.10;53.30;;;;;;6057019;29;19931;-53
2023/01/13 03:50:30;;;;;;;;;;;21.20;53.20;;;;;;6057423;29;19970;-53
2023/01/13 03:53:33;;;;;;;;;;;21.10;53.20;;;;;;6057720;29;19924;-52
2023/01/13 03:56:36;;;;;;;;;;;21.00;53.20;;;;;;6057930;29;20440;-53
2023/01/13 03:59:40;;;;;;;;;;;21.80;53.50;;;;;;6057623;29;20010;-50
2023/01/13 04:02:47;;;;;;;;;;;21.30;53.30;;;;;;6057452;29;20356;-52
2023/01/13 04:05:50;;;;;;;;;;;21.00;53.10;;;;;;6057191;29;19935;-53
2023/01/13 04:08:54;;;;;;;;;;;21.40;53.40;;;;;;6057158;29;19923;-50
2023/01/13 04:11:59;;;;;;;;;;;21.00;53.10;;;;;;6057084;29;19966;-51
2023/01/13 04:15:01;;;;;;;;;;;21.30;53.20;;;;;;6057051;29;20373;-52
2023/01/13 04:18:10;;;;;;;;;;;21.50;53.60;;;;;;6057336;29;20043;-51
2023/01/13 04:21:12;;;;;;;;;;;21.30;53.30;;;;;;6056498;29;20302;-52
2023/01/13 04:24:13;;;;;;;;;;;21.50;53.60;;;;;;6057104;29;19923;-49
2023/01/13 04:27:14;;;;;;;;;;;21.00;53.20;;;;;;6056311;29;20372;-52
2023/01/13 04:30:16;;;;;;;;;;;21.10;53.30;;;;;;6056963;29;19930;-52
2023/01/13 04:33:18;;;;;;;;;;;21.00;53.30;;;;;;6056518;29;19963;-51
2023/01/13 04:36:23;;;;;;;;;;;21.20;53.40;;;;;;6056386;29;19966;-49
2023/01/13 04:39:25;;;;;;;;;;;21.00;53.30;;;;;;6056608;29;19924;-53
2023/01/13 04:42:26;;;;;;;;;;;21.50;53.50;;;;;;6060207;29;19970;-53
2023/01/13 04:45:27;;;;;;;;;;;21.10;52.90;;;;;;6060268;29;19927;-53
2023/01/13 04:48:29;;;;;;;;;;;20.90;53.30;;;;;;6060765;29;19947;-51
2023/01/13 04:51:30;;;;;;;;;;;21.10;53.20;;;;;;6059988;29;20360;-51
2023/01/13 04:54:32;;;;;;;;;;;21.00;53.20;;;;;;6060231;29;20336;-53
2023/01/13 04:57:34;;;;;;;;;;;21.00;53.20;;;;;;6060625;29;19927;-50
2023/01/13 05:00:35;;;;;;;;;;;21.10;53.10;;;;;;6060259;29;20320;-49
2023/01/13 05:03:37;;;;;;;;;;;21.10;53.10;;;;;;6044121;29;20292;-52
2023/01/13 05:06:38;;;;;;;;;;;21.40;53.50;;;;;;6060245;29;19976;-50
2023/01/13 05:09:40;;;;;;;;;;;21.00;53.10;;;;;;6059821;29;19979;-53
2023/01/13 05:19:13;;;;;;;;;;;21.20;53.20;;;;;;6059876;29;19924;-53
2023/01/13 05:25:31;;;;;;;;;;;21.50;53.20;;;;;;6059755;29;19931;-50
2023/01/13 05:28:33;;;;;;;;;;;21.40;53.30;;;;;;6059788;29;20375;-49
2023/01/13 05:31:34;;;;;;;;;;;20.80;52.80;;;;;;6042931;29;20411;-52
2023/01/13 05:34:36;;;;;;;;;;;21.30;53.20;;;;;;6059728;29;19927;-53
2023/01/13 05:37:38;;;;;;;;;;;20.90;53.00;;;;;;6059471;29;19955;-52
2023/01/13 05:43:51;;;;;;;;;;;21.30;53.10;;;;;;6059157;29;19951;-52
2023/01/13 05:46:53;;;;;;;;;;;21.30;53.20;;;;;;6059374;29;19963;-52
2023/01/13 05:49:55;;;;;;;;;;;21.30;53.20;;;;;;6059239;29;19924;-50
2023/01/13 05:52:56;;;;;;;;;;;21.20;53.10;;;;;;6058174;29;20022;-53
2023/01/13 05:55:57;;;;;;;;;;;21.70;53.30;;;;;;6059101;29;20015;-52
2023/01/13 05:58:58;;;;;;;;;;;21.00;52.90;;;;;;6058871;29;19958;-52
2023/01/13 06:02:00;;;;;;;;;;;20.80;52.80;;;;;;6058887;29;19958;-51
2023/01/13 06:05:02;;;;;;;;;;;21.20;53.00;;;;;;6059146;29;19924;-52
2023/01/13 06:08:03;;;;;;;;;;;21.50;53.20;;;;;;6058967;29;19923;-51
2023/01/13 06:11:05;;;;;;;;;;;21.20;52.90;;;;;;6058658;29;19948;-52
2023/01/13 06:14:06;;;;;;;;;;;20.90;52.80;;;;;;6058911;29;19924;-49
2023/01/13 06:17:07;;;;;;;;;;;21.00;52.90;;;;;;6058688;29;19923;-51
2023/01/13 06:20:10;;;;;;;;;;;21.40;53.00;;;;;;6058498;29;19974;-52
2023/01/13 06:23:11;;;;;;;;;;;21.00;52.80;;;;;;6058762;29;20368;-51
2023/01/13 06:26:15;;;;;;;;;;;21.40;53.20;;;;;;6058636;29;19931;-51
2023/01/13 06:29:16;;;;;;;;;;;21.00;52.70;;;;;;6058315;29;19924;-53
2023/01/13 06:32:18;;;;;;;;;;;21.60;53.30;;;;;;6058852;29;20284;-51
2023/01/13 06:35:22;;;;;;;;;;;21.10;52.90;;;;;;6058527;29;19924;-51
2023/01/13 06:38:24;;;;;;;;;;;21.00;53.00;;;;;;6058596;29;19923;-50
2023/01/13 06:44:43;;;;;;;;;;;21.60;53.10;;;;;;6043649;29;19976;-53
2023/01/13 06:47:44;;;;;;;;;;;21.00;52.80;;;;;;6042564;29;20387;-51
2023/01/13 06:50:46;;;;;;;;;;;20.80;52.80;;;;;;6058242;29;19970;-50
2023/01/13 06:53:48;;;;;;;;;;;21.00;52.80;;;;;;6059420;29;19967;-50
2023/01/13 06:56:49;;;;;;;;;;;21.20;53.00;;;;;;6059142;29;19963;-51
2023/01/13 06:59:50;;;;;;;;;;;20.80;52.40;;;;;;6059069;29;19965;-51
2023/01/13 07:02:52;;;;;;;;;;;21.20;52.50;;;;;;6058602;29;19949;-53
2023/01/13 07:05:54;;;;;;;;;;;20.70;52.50;;;;;;6058379;29;19991;-52
2023/01/13 07:08:56;;;;;;;;;;;21.40;53.10;;;;;;6059070;29;20018;-52
2023/01/13 07:11:57;;;;;;;;;;;20.80;52.50;;;;;;6058736;29;19924;-53
2023/01/13 07:18:11;;;;;;;;;;;20.90;52.60;;;;;;6057475;29;20399;-52
2023/01/13 07:21:17;;;;;;;;;;;21.70;53.00;;;;;;6057812;29;20481;-52
2023/01/13 07:24:19;;;;;;;;;;;21.00;52.70;;;;;;6057820;29;19928;-52
2023/01/13 07:27:20;;;;;;;;;;;21.20;52.70;;;;;;6041761;29;19996;-50
2023/01/13 07:30:21;;;;;;;;;;;21.30;52.80;;;;;;6040775;29;19923;-53
2023/01/13 07:33:23;;;;;;;;;;;21.40;53.00;;;;;;6057641;29;20258;-51
2023/01/13 07:36:25;;;;;;;;;;;21.00;52.60;;;;;;6041633;29;19924;-51
2023/01/13 07:39:26;;;;;;;;;;;21.40;52.70;;;;;;6043378;29;20019;-51
2023/01/13 07:45:41;;;;;;;;;;;21.60;52.80;;;;;;6057709;29;19931;-49
2023/01/13 07:48:43;;;;;;;;;;;21.20;52.30;;;;;;6057797;29;19924;-53
2023/01/13 07:51:45;;;;;;;;;;;21.60;52.90;;;;;;6057559;29;19924;-49
2023/01/13 07:54:46;;;;;;;;;;;21.00;52.60;;;;;;6057126;29;20333;-52
2023/01/13 07:57:48;;;;;;;;;;;21.60;52.80;;;;;;6056981;29;19931;-52
2023/01/13 08:00:49;;;;;;;;;;;20.80;52.30;;;;;;6056328;29;19931;-53
2023/01/13 08:03:51;;;;;;;;;;;21.40;52.70;;;;;;6056980;29;20010;-52
2023/01/13 08:06:53;;;;;;;;;;;20.80;51.00;;;;;;6056291;29;20079;-49
2023/01/13 08:09:55;;;;;;;;;;;21.50;52.70;;;;;;6056236;29;19931;-50
2023/01/13 08:16:12;;;;;;;;;;;21.20;52.30;;;;;;6058923;29;19968;-51
2023/01/13 08:19:13;;;;;;;;;;;21.00;52.30;;;;;;6060272;29;19924;-52
2023/01/13 08:22:16;;;;;;;;;;;21.20;52.50;;;;;;6061091;29;20289;-49
2023/01/13 08:25:17;;;;;;;;;;;21.00;52.40;;;;;;6060353;29;19924;-52
2023/01/13 08:28:18;;;;;;;;;;;21.30;52.50;;;;;;6060787;29;19927;-51
2023/01/13 08:31:20;;;;;;;;;;;20.90;52.30;;;;;;6059557;29;19924;-53
2023/01/13 08:34:21;;;;;;;;;;;21.30;52.40;;;;;;6059963;29;19931;-52
2023/01/13 08:37:23;;;;;;;;;;;20.90;52.20;;;;;;6059653;29;20257;-55
2023/01/13 08:40:26;;;;;;;;;;;21.50;52.40;;;;;;6059651;29;20022;-54
2023/01/13 08:43:27;;;;;;;;;;;20.90;51.90;;;;;;6059307;29;19927;-53
2023/01/13 08:46:28;;;;;;;;;;;21.20;52.20;;;;;;6059791;29;19928;-54
2023/01/13 08:49:30;;;;;;;;;;;21.30;52.00;;;;;;6059339;29;19975;-50
2023/01/13 08:52:32;;;;;;;;;;;21.60;52.20;;;;;;6059577;29;19924;-52
2023/01/13 08:55:33;;;;;;;;;;;21.10;51.90;;;;;;6059432;29;19924;-49
2023/01/13 08:58:34;;;;;;;;;;;21.60;52.10;;;;;;6059147;29;19924;-51
2023/01/13 09:01:38;;;;;;;;;;;20.90;51.70;;;;;;6059402;29;19924;-53
2023/01/13 09:04:39;;;;;;;;;;;21.30;51.90;;;;;;6059756;29;19974;-52
2023/01/13 09:07:42;;;;;;;;;;;21.00;51.70;;;;;;6059243;29;20324;-51
2023/01/13 09:10:43;;;;;;;;;;;22.00;52.10;;;;;;6059480;29;19947;-52
2023/01/13 09:13:44;;;;;;;;;;;21.30;51.80;;;;;;6059089;29;19932;-53
2023/01/13 09:16:46;;;;;;;;;;;21.20;51.10;;;;;;6059403;29;19979;-51
2023/01/13 09:19:47;;;;;;;;;;;21.10;51.30;;;;;;6058905;29;19930;-52
2023/01/13 09:22:49;;;;;;;;;;;21.40;51.60;;;;;;6059147;29;20008;-50
2023/01/13 09:25:51;;;;;;;;;;;21.10;51.40;;;;;;6058553;29;19960;-51
2023/01/13 09:28:53;;;;;;;;;;;21.70;51.60;;;;;;6057585;29;19924;-52
2023/01/13 09:31:56;;;;;;;;;;;21.10;51.30;;;;;;6059189;29;19924;-52
2023/01/13 09:34:58;;;;;;;;;;;21.40;51.50;;;;;;6058933;29;19928;-51
2023/01/13 09:38:00;;;;;;;;;;;21.60;49.90;;;;;;6058414;29;20340;-50
2023/01/13 09:43:52;;;;;;;;;;;21.50;51.50;;;;;;6058948;29;20296;-49
2023/01/13 09:44:25;;;;;;;;;;;21.20;51.10;;;;;;6044974;29;19924;-51
2023/01/13 09:47:29;;;;;;;;;;;21.60;51.30;;;;;;6058391;29;19924;-51
2023/01/13 09:50:38;;;;;;;;;;;21.50;51.80;;;;;;6057813;29;19924;-51
2023/01/13 09:53:46;;;;;;;;;;;21.50;51.30;;;;;;6058670;29;19923;-50
2023/01/13 09:56:47;;;;;;;;;;;21.30;51.20;;;;;;6041603;29;19924;-50
2023/01/13 09:59:49;;;;;;;;;;;21.80;51.50;;;;;;6058463;29;19946;-53
2023/01/13 10:03:05;;;;;;;;;;;21.60;51.30;;;;;;6058154;29;19931;-49
2023/01/13 10:06:10;;;;;;;;;;;21.60;51.20;;;;;;6058175;29;20023;-51
2023/01/13 10:09:13;;;;;;;;;;;21.50;51.10;;;;;;6058289;29;19927;-53
2023/01/13 10:15:32;;;;;;;;;;;21.20;50.80;;;;;;6044108;29;20448;-52
2023/01/13 10:18:38;;;;;;;;;;;21.60;50.80;;;;;;6058010;29;19980;-52
2023/01/13 10:21:46;;;;;;;;;;;21.40;50.90;;;;;;6041231;29;20285;-52
2023/01/13 10:24:54;;;;;;;;;;;21.70;50.60;;;;;;6058020;29;19928;-51
2023/01/13 10:28:03;;;;;;;;;;;21.30;50.80;;;;;;6057961;29;19930;-51
2023/01/13 10:31:10;;;;;;;;;;;21.60;50.90;;;;;;6057925;29;20281;-53
2023/01/13 10:34:12;;;;;;;;;;;21.40;50.80;;;;;;6041385;29;19930;-51
2023/01/13 10:37:18;;;;;;;;;;;21.20;50.80;;;;;;6057508;29;20019;-52
2023/01/13 10:40:20;;;;;;;;;;;21.10;50.60;;;;;;6057278;29;19939;-50
2023/01/13 10:43:22;;;;;;;;;;;21.90;51.00;;;;;;6057334;29;20079;-51
2023/01/13 10:46:24;;;;;;;;;;;21.20;50.50;;;;;;6041574;29;19930;-53
2023/01/13 10:49:27;;;;;;;;;;;21.40;50.80;;;;;;6040862;29;19930;-53
2023/01/13 11:01:33;;;;;;;;;;;21.80;48.40;;;;;;6057130;29;20418;-52
2023/01/13 11:04:35;;;;;;;;;;;22.00;50.90;;;;;;6058160;29;20297;-53
2023/01/13 11:07:38;;;;;;;;;;;21.50;50.60;;;;;;6041537;29;19966;-52
2023/01/13 11:10:43;;;;;;;;;;;21.80;50.70;;;;;;6040832;29;19979;-53
2023/01/13 11:17:08;;;;;;;;;;;22.10;50.80;;;;;;6043165;29;19923;-51
2023/01/13 11:20:14;;;;;;;;;;;21.80;50.60;;;;;;6058151;29;19976;-54
2023/01/13 11:23:17;;;;;;;;;;;21.80;50.70;;;;;;6041776;29;19959;-54
2023/01/13 11:26:22;;;;;;;;;;;21.70;50.50;;;;;;6042427;29;20419;-50
2023/01/13 11:29:27;;;;;;;;;;;22.00;50.70;;;;;;6059243;29;19962;-53
2023/01/13 11:32:32;;;;;;;;;;;21.50;50.20;;;;;;6059025;29;19931;-53
2023/01/13 11:35:37;;;;;;;;;;;22.10;50.70;;;;;;6059014;29;19959;-52
2023/01/13 11:38:42;;;;;;;;;;;21.50;50.30;;;;;;6059319;29;19928;-51
2023/01/13 11:42:19;;;;;;;;;;;22.10;50.50;;;;;;6059302;29;19930;-52
2023/01/13 11:45:15;;;;;;;;;;;21.60;50.20;;;;;;6045516;29;19980;-52
2023/01/13 11:48:20;;;;;;;;;;;22.10;50.40;;;;;;6059823;29;19967;-50
2023/01/13 11:51:25;;;;;;;;;;;21.60;50.30;;;;;;6059135;29;19930;-51
2023/01/13 11:54:42;;;;;;;;;;;22.10;50.40;;;;;;6059484;29;19940;-49
2023/01/13 11:57:49;;;;;;;;;;;21.60;50.00;;;;;;6059032;29;19924;-50
2023/01/13 12:01:05;;;;;;;;;;;22.20;50.30;;;;;;6059318;29;19972;-53
2023/01/13 12:04:22;;;;;;;;;;;21.40;49.90;;;;;;6044470;29;19924;-52
2023/01/13 12:07:30;;;;;;;;;;;21.80;49.80;;;;;;6058663;29;19930;-51
2023/01/13 12:10:38;;;;;;;;;;;21.60;50.00;;;;;;6057436;29;20039;-53
2023/01/13 12:13:49;;;;;;;;;;;22.00;50.20;;;;;;6057169;29;19931;-52
2023/01/13 12:16:51;;;;;;;;;;;21.90;50.10;;;;;;6058046;29;20002;-52
2023/01/13 12:19:54;;;;;;;;;;;22.00;47.90;;;;;;6057635;29;19930;-51
2023/01/13 12:22:58;;;;;;;;;;;21.90;50.30;;;;;;6057698;29;20075;-52
2023/01/13 12:26:04;;;;;;;;;;;22.20;50.20;;;;;;6057451;29;19928;-51
2023/01/13 12:29:06;;;;;;;;;;;21.90;50.00;;;;;;6056699;29;19932;-48
2023/01/13 12:32:11;;;;;;;;;;;21.40;49.80;;;;;;6039593;29;19924;-51
2023/01/13 12:35:27;;;;;;;;;;;21.70;49.90;;;;;;6056793;29;19992;-53
2023/01/13 12:38:33;;;;;;;;;;;22.20;50.10;;;;;;6056361;29;20376;-53
2023/01/13 12:44:15;;;;;;;;;;;21.70;49.80;;;;;;6055656;29;19923;-53
2023/01/13 12:45:05;;;;;;;;;;;21.90;49.40;;;;;;6041981;29;19924;-53
2023/01/13 12:48:21;;;;;;;;;;;21.70;49.80;;;;;;6023455;29;19923;-50
2023/01/13 12:51:24;;;;;;;;;;;22.30;50.10;;;;;;6041141;29;20292;-54
2023/01/13 12:54:41;;;;;;;;;;;21.70;49.90;;;;;;6039860;29;20424;-54
2023/01/13 12:57:57;;;;;;;;;;;22.20;50.00;;;;;;6041144;29;19970;-53
2023/01/13 13:01:00;;;;;;;;;;;21.70;49.70;;;;;;6026359;29;19982;-53
2023/01/13 13:04:09;;;;;;;;;;;22.20;50.00;;;;;;6050949;29;19924;-51
2023/01/13 13:07:14;;;;;;;;;;;21.80;49.70;;;;;;6060374;29;19924;-54
2023/01/13 13:10:19;;;;;;;;;;;22.10;48.20;;;;;;6059789;29;19931;-53
2023/01/13 13:13:38;;;;;;;;;;;21.60;49.60;;;;;;6059906;29;19924;-52
2023/01/13 13:16:44;;;;;;;;;;;22.40;50.00;;;;;;6060079;29;20428;-54
2023/01/13 13:19:48;;;;;;;;;;;21.90;49.70;;;;;;6042995;29;19924;-52
2023/01/13 13:22:50;;;;;;;;;;;22.10;49.50;;;;;;6043727;29;19935;-53
2023/01/13 13:26:00;;;;;;;;;;;21.70;49.30;;;;;;6059365;29;19924;-53
2023/01/13 13:29:16;;;;;;;;;;;22.10;49.60;;;;;;6059194;29;19958;-52
2023/01/13 13:32:29;;;;;;;;;;;21.70;49.40;;;;;;6058268;29;19924;-51
2023/01/13 13:35:39;;;;;;;;;;;22.20;49.70;;;;;;6059227;29;20385;-51
2023/01/13 13:48:49;;;;;;;;;;;22.30;49.60;;;;;;6049120;29;20388;-53
2023/01/13 13:51:54;;;;;;;;;;;21.70;49.20;;;;;;6042067;29;20379;-55
2023/01/13 13:54:58;;;;;;;;;;;22.20;49.50;;;;;;6060401;29;19924;-54
2023/01/13 13:58:00;;;;;;;;;;;21.70;49.20;;;;;;6059145;29;20308;-52
2023/01/13 14:01:05;;;;;;;;;;;22.20;49.40;;;;;;6059285;29;19930;-50
2023/01/13 14:04:12;;;;;;;;;;;22.20;49.30;;;;;;6060776;29;19924;-50
2023/01/13 14:07:16;;;;;;;;;;;22.10;49.20;;;;;;6059691;29;20380;-52
2023/01/13 14:10:20;;;;;;;;;;;22.10;49.10;;;;;;6059910;29;20269;-52
2023/01/13 14:13:24;;;;;;;;;;;22.20;49.20;;;;;;6026644;29;19930;-52
2023/01/13 14:16:26;;;;;;;;;;;22.10;49.10;;;;;;6059494;29;19924;-52
2023/01/13 14:19:29;;;;;;;;;;;22.50;49.70;;;;;;6060751;29;19931;-51
2023/01/13 14:22:32;;;;;;;;;;;22.10;49.10;;;;;;6060006;29;19931;-51
2023/01/13 14:25:36;;;;;;;;;;;22.30;49.20;;;;;;6060661;29;19923;-51
2023/01/13 14:28:39;;;;;;;;;;;21.70;48.90;;;;;;6042669;29;19924;-50
2023/01/13 14:31:41;;;;;;;;;;;22.20;48.90;;;;;;6059160;29;19963;-50
2023/01/13 14:34:42;;;;;;;;;;;22.10;48.90;;;;;;6058324;29;19967;-51
2023/01/13 14:37:44;;;;;;;;;;;22.10;49.10;;;;;;6059776;29;19923;-53
2023/01/13 14:40:46;;;;;;;;;;;22.20;48.80;;;;;;6059249;29;19923;-50
2023/01/13 14:43:48;;;;;;;;;;;22.20;49.10;;;;;;6058835;29;19931;-51
2023/01/13 14:46:50;;;;;;;;;;;22.20;49.00;;;;;;6057985;29;20321;-52
2023/01/13 14:49:55;;;;;;;;;;;22.40;49.20;;;;;;6058652;29;20385;-51
2023/01/13 14:52:59;;;;;;;;;;;22.20;49.00;;;;;;6058540;29;19927;-50
2023/01/13 14:56:15;;;;;;;;;;;22.10;49.00;;;;;;6058480;29;20281;-51
2023/01/13 14:59:29;;;;;;;;;;;21.50;48.50;;;;;;6043417;29;19924;-51
2023/01/13 15:02:40;;;;;;;;;;;22.50;49.20;;;;;;6057602;29;20384;-48
2023/01/13 15:05:46;;;;;;;;;;;21.80;48.60;;;;;;6058176;29;19923;-50
2023/01/13 15:08:49;;;;;;;;;;;22.50;49.10;;;;;;6042244;29;19946;-49
2023/01/13 15:11:53;;;;;;;;;;;22.10;48.90;;;;;;6058659;29;19987;-50
2023/01/13 15:14:54;;;;;;;;;;;22.40;49.10;;;;;;6058673;29;19923;-48
2023/01/13 15:17:56;;;;;;;;;;;21.90;48.80;;;;;;6058205;29;19939;-53
2023/01/13 15:20:57;;;;;;;;;;;22.30;49.10;;;;;;6058714;29;19924;-51
2023/01/13 15:23:59;;;;;;;;;;;22.20;49.00;;;;;;6058675;29;19976;-53
2023/01/13 15:27:03;;;;;;;;;;;22.20;49.00;;;;;;6057849;29;20042;-50
2023/01/13 15:30:12;;;;;;;;;;;22.00;48.70;;;;;;6057357;29;19959;-52
2023/01/13 15:33:15;;;;;;;;;;;22.20;48.80;;;;;;6057268;29;19962;-52
2023/01/13 15:36:22;;;;;;;;;;;22.20;48.90;;;;;;6058189;29;19924;-49
2023/01/13 15:39:24;;;;;;;;;;;22.30;48.80;;;;;;6056903;29;19972;-51
2023/01/13 15:48:59;;;;;;;;;;;22.00;48.70;;;;;;6056415;29;19923;-51
2023/01/13 15:52:02;;;;;;;;;;;22.30;48.80;;;;;;6057653;29;19956;-50
2023/01/13 15:55:03;;;;;;;;;;;22.10;48.60;;;;;;6061467;29;19959;-50
2023/01/13 15:58:04;;;;;;;;;;;22.60;49.10;;;;;;6063590;29;19923;-52
2023/01/13 16:01:07;;;;;;;;;;;22.00;48.70;;;;;;6064074;29;19924;-50
2023/01/13 16:04:09;;;;;;;;;;;22.20;48.80;;;;;;6067246;29;19979;-52
2023/01/13 16:07:12;;;;;;;;;;;22.00;48.80;;;;;;6065285;29;19924;-50
2023/01/13 16:10:15;;;;;;;;;;;22.30;48.80;;;;;;6069961;29;19931;-52
2023/01/13 16:13:17;;;;;;;;;;;22.20;48.60;;;;;;6054630;29;19931;-52
2023/01/13 16:16:20;;;;;;;;;;;22.60;49.00;;;;;;6070547;29;19924;-52
2023/01/13 16:19:22;;;;;;;;;;;22.30;48.70;;;;;;6047297;29;19930;-53
2023/01/13 16:22:23;;;;;;;;;;;22.30;48.90;;;;;;6058132;29;20395;-53
2023/01/13 16:25:25;;;;;;;;;;;22.00;48.60;;;;;;6057527;29;19924;-52
2023/01/13 16:28:27;;;;;;;;;;;22.00;48.70;;;;;;6040677;29;19972;-51
2023/01/13 16:31:30;;;;;;;;;;;21.90;48.60;;;;;;6059875;29;19924;-53
2023/01/13 16:34:32;;;;;;;;;;;22.40;48.70;;;;;;6061709;29;19930;-52
2023/01/13 16:37:33;;;;;;;;;;;22.10;48.60;;;;;;6065730;29;19924;-51
2023/01/13 16:40:35;;;;;;;;;;;22.40;48.90;;;;;;6067118;29;19931;-53
2023/01/13 16:43:37;;;;;;;;;;;22.20;48.70;;;;;;6068092;29;19924;-49
2023/01/13 16:46:38;;;;;;;;;;;22.10;48.60;;;;;;6072692;29;19949;-51
2023/01/13 16:49:40;;;;;;;;;;;22.10;48.60;;;;;;6073292;29;19949;-52
2023/01/13 16:52:42;;;;;;;;;;;22.40;48.80;;;;;;6069792;29;19923;-52
2023/01/13 16:55:43;;;;;;;;;;;22.10;48.60;;;;;;6070097;29;19931;-52
2023/01/13 16:58:44;;;;;;;;;;;22.50;48.90;;;;;;6070790;29;19924;-52
2023/01/13 17:01:46;;;;;;;;;;;21.80;48.10;;;;;;6067272;29;19931;-49
2023/01/13 17:04:48;;;;;;;;;;;22.40;48.70;;;;;;6065299;29;19923;-53
2023/01/13 17:07:49;;;;;;;;;;;22.20;48.70;;;;;;6064025;29;19935;-50
2023/01/13 17:10:50;;;;;;;;;;;22.10;48.60;;;;;;6069475;29;19967;-52
2023/01/13 17:13:51;;;;;;;;;;;22.10;48.60;;;;;;6066891;29;19934;-52
2023/01/13 17:16:54;;;;;;;;;;;22.60;48.90;;;;;;6061095;29;19923;-48
2023/01/13 17:19:56;;;;;;;;;;;22.30;48.60;;;;;;6059053;29;20320;-53
2023/01/13 17:22:58;;;;;;;;;;;22.70;49.00;;;;;;6043215;29;20437;-52
2023/01/13 17:25:59;;;;;;;;;;;22.20;48.50;;;;;;6059307;29;20026;-53
2023/01/13 17:29:01;;;;;;;;;;;22.70;49.00;;;;;;6060041;29;19931;-50
2023/01/13 17:32:02;;;;;;;;;;;22.20;48.60;;;;;;6060396;29;20028;-50
2023/01/13 17:35:06;;;;;;;;;;;22.30;48.80;;;;;;6060168;29;20033;-51
2023/01/13 17:38:07;;;;;;;;;;;22.30;48.60;;;;;;6060024;29;19925;-50
2023/01/13 17:41:09;;;;;;;;;;;22.60;48.90;;;;;;6059949;29;19928;-52
2023/01/13 17:44:11;;;;;;;;;;;22.40;48.70;;;;;;6060552;29;19940;-50
2023/01/13 17:47:13;;;;;;;;;;;22.70;48.90;;;;;;6044739;29;19980;-53
2023/01/13 17:50:15;;;;;;;;;;;22.20;48.70;;;;;;6060000;29;19924;-54
2023/01/13 17:53:17;;;;;;;;;;;22.30;48.60;;;;;;6059859;29;19923;-48
2023/01/13 17:56:18;;;;;;;;;;;22.00;48.30;;;;;;6063058;29;20059;-49
2023/01/13 17:59:20;;;;;;;;;;;22.20;48.50;;;;;;6059657;29;19966;-49
2023/01/13 18:02:22;;;;;;;;;;;22.00;48.50;;;;;;6059619;29;19924;-50
2023/01/13 18:05:24;;;;;;;;;;;22.70;49.00;;;;;;6060162;29;20341;-52
2023/01/13 18:08:25;;;;;;;;;;;22.10;48.70;;;;;;6062021;29;19946;-48
2023/01/13 18:11:27;;;;;;;;;;;22.40;48.90;;;;;;6061884;29;19924;-52
2023/01/13 18:14:28;;;;;;;;;;;22.30;48.70;;;;;;6063157;29;20406;-50
2023/01/13 18:17:29;;;;;;;;;;;22.60;49.00;;;;;;6061750;29;20329;-53
2023/01/13 18:30:11;;;;;;;;;;;22.40;48.30;;;;;;6045858;29;20292;-51
2023/01/13 18:33:12;;;;;;;;;;;22.20;48.80;;;;;;6060285;29;19924;-49
2023/01/13 18:36:14;;;;;;;;;;;22.60;49.20;;;;;;6059186;29;19962;-52
2023/01/13 18:39:16;;;;;;;;;;;21.80;48.80;;;;;;6059332;29;20436;-50
2023/01/13 18:45:31;;;;;;;;;;;22.10;48.80;;;;;;6058872;29;20288;-48
2023/01/13 18:48:32;;;;;;;;;;;22.30;48.10;;;;;;6059813;29;20407;-49
2023/01/13 18:51:34;;;;;;;;;;;22.10;49.00;;;;;;6059179;29;19924;-53
2023/01/13 18:54:36;;;;;;;;;;;22.40;49.30;;;;;;6059464;29;20276;-49
2023/01/13 18:57:39;;;;;;;;;;;21.90;48.60;;;;;;6059293;29;19923;-48
2023/01/13 19:00:40;;;;;;;;;;;22.50;49.30;;;;;;6058637;29;20381;-51
2023/01/13 19:03:41;;;;;;;;;;;22.10;49.10;;;;;;6059743;29;19923;-49
2023/01/13 19:06:47;;;;;;;;;;;22.50;50.20;;;;;;6059227;29;20399;-50
2023/01/13 19:09:49;;;;;;;;;;;22.00;49.20;;;;;;6058726;29;20401;-53
2023/01/13 19:12:50;;;;;;;;;;;22.40;49.50;;;;;;6059683;29;20444;-50